sensor_id;sensor_type;location;lat;lon;timestamp;temperature;humidity
32217;DHT22;67098;51.140;4.088;2023-09-30T00:01:01;16.30;94.40
32217;DHT22;67098;51.140;4.088;2023-09-30T00:03:27;16.30;94.40
32217;DHT22;67098;51.140;4.088;2023-09-30T00:05:53;16.30;94.50
32217;DHT22;67098;51.140;4.088;2023-09-30T00:08:19;16.20;94.40
32217;DHT22;67098;51.140;4.088;2023-09-30T00:10:45;16.30;94.30
32217;DHT22;67098;51.140;4.088;2023-09-30T00:13:12;16.30;94.30
32217;DHT22;67098;51.140;4.088;2023-09-30T00:15:38;16.30;94.50
32217;DHT22;67098;51.140;4.088;2023-09-30T00:18:04;16.30;94.40
32217;DHT22;67098;51.140;4.088;2023-09-30T00:20:31;16.20;94.40
32217;DHT22;67098;51.140;4.088;2023-09-30T00:22:57;16.20;94.40
32217;DHT22;67098;51.140;4.088;2023-09-30T00:25:23;16.20;94.40
32217;DHT22;67098;51.140;4.088;2023-09-30T00:27:49;16.20;94.40
32217;DHT22;67098;51.140;4.088;2023-09-30T00:30:15;16.20;94.50
32217;DHT22;67098;51.140;4.088;2023-09-30T00:32:40;16.20;94.60
32217;DHT22;67098;51.140;4.088;2023-09-30T00:35:07;16.20;94.60
32217;DHT22;67098;51.140;4.088;2023-09-30T00:37:39;16.20;94.60
32217;DHT22;67098;51.140;4.088;2023-09-30T00:40:06;16.20;94.40
32217;DHT22;67098;51.140;4.088;2023-09-30T00:42:32;16.20;94.40
32217;DHT22;67098;51.140;4.088;2023-09-30T00:44:58;16.20;94.30
32217;DHT22;67098;51.140;4.088;2023-09-30T00:47:24;16.10;94.30
32217;DHT22;67098;51.140;4.088;2023-09-30T00:49:52;16.10;94.30
32217;DHT22;67098;51.140;4.088;2023-09-30T00:52:19;16.10;94.30
32217;DHT22;67098;51.140;4.088;2023-09-30T00:54:46;16.10;94.40
32217;DHT22;67098;51.140;4.088;2023-09-30T00:57:13;16.00;94.40
32217;DHT22;67098;51.140;4.088;2023-09-30T00:59:40;16.10;94.20
32217;DHT22;67098;51.140;4.088;2023-09-30T01:02:06;16.10;94.40
32217;DHT22;67098;51.140;4.088;2023-09-30T01:04:32;16.00;94.50
32217;DHT22;67098;51.140;4.088;2023-09-30T01:06:58;16.00;94.30
32217;DHT22;67098;51.140;4.088;2023-09-30T01:09:24;16.00;94.10
32217;DHT22;67098;51.140;4.088;2023-09-30T01:11:51;16.10;94.00
32217;DHT22;67098;51.140;4.088;2023-09-30T01:14:30;16.00;94.10
32217;DHT22;67098;51.140;4.088;2023-09-30T01:16:56;16.10;94.10
32217;DHT22;67098;51.140;4.088;2023-09-30T01:19:23;16.00;94.30
32217;DHT22;67098;51.140;4.088;2023-09-30T01:21:53;16.00;94.50
32217;DHT22;67098;51.140;4.088;2023-09-30T01:24:20;16.00;94.50
32217;DHT22;67098;51.140;4.088;2023-09-30T01:26:46;16.00;94.40
32217;DHT22;67098;51.140;4.088;2023-09-30T01:29:11;15.90;94.40
32217;DHT22;67098;51.140;4.088;2023-09-30T01:31:38;15.90;94.30
32217;DHT22;67098;51.140;4.088;2023-09-30T01:34:05;15.90;94.10
32217;DHT22;67098;51.140;4.088;2023-09-30T01:36:31;15.90;94.10
32217;DHT22;67098;51.140;4.088;2023-09-30T01:38:57;15.90;94.00
32217;DHT22;67098;51.140;4.088;2023-09-30T01:41:23;15.90;94.10
32217;DHT22;67098;51.140;4.088;2023-09-30T01:43:49;15.90;94.00
32217;DHT22;67098;51.140;4.088;2023-09-30T01:46:15;15.90;93.90
32217;DHT22;67098;51.140;4.088;2023-09-30T01:48:40;15.80;93.90
32217;DHT22;67098;51.140;4.088;2023-09-30T01:51:06;15.80;93.80
32217;DHT22;67098;51.140;4.088;2023-09-30T01:53:32;15.80;93.80
32217;DHT22;67098;51.140;4.088;2023-09-30T01:55:59;15.80;93.90
32217;DHT22;67098;51.140;4.088;2023-09-30T01:58:24;15.80;93.80
32217;DHT22;67098;51.140;4.088;2023-09-30T02:00:52;15.80;93.90
32217;DHT22;67098;51.140;4.088;2023-09-30T02:03:18;15.70;94.00
32217;DHT22;67098;51.140;4.088;2023-09-30T02:05:44;15.70;93.90
32217;DHT22;67098;51.140;4.088;2023-09-30T02:08:10;15.70;94.00
32217;DHT22;67098;51.140;4.088;2023-09-30T02:10:35;15.70;93.80
32217;DHT22;67098;51.140;4.088;2023-09-30T02:13:02;15.70;94.00
32217;DHT22;67098;51.140;4.088;2023-09-30T02:15:31;15.70;94.00
32217;DHT22;67098;51.140;4.088;2023-09-30T02:17:57;15.60;94.20
32217;DHT22;67098;51.140;4.088;2023-09-30T02:20:23;15.60;94.30
32217;DHT22;67098;51.140;4.088;2023-09-30T02:22:51;15.60;94.30
32217;DHT22;67098;51.140;4.088;2023-09-30T02:25:18;15.70;94.50
32217;DHT22;67098;51.140;4.088;2023-09-30T02:27:44;15.70;94.50
32217;DHT22;67098;51.140;4.088;2023-09-30T02:30:11;15.80;94.50
32217;DHT22;67098;51.140;4.088;2023-09-30T02:32:41;15.80;94.60
32217;DHT22;67098;51.140;4.088;2023-09-30T02:35:08;15.80;94.60
32217;DHT22;67098;51.140;4.088;2023-09-30T02:37:36;15.80;94.80
32217;DHT22;67098;51.140;4.088;2023-09-30T02:40:03;15.80;94.80
32217;DHT22;67098;51.140;4.088;2023-09-30T02:42:31;15.80;94.70
32217;DHT22;67098;51.140;4.088;2023-09-30T02:44:59;15.80;94.60
32217;DHT22;67098;51.140;4.088;2023-09-30T02:47:25;15.90;94.50
32217;DHT22;67098;51.140;4.088;2023-09-30T02:49:51;15.80;94.50
32217;DHT22;67098;51.140;4.088;2023-09-30T02:52:17;15.80;94.60
32217;DHT22;67098;51.140;4.088;2023-09-30T02:54:43;15.80;94.60
32217;DHT22;67098;51.140;4.088;2023-09-30T02:57:09;15.80;94.80
32217;DHT22;67098;51.140;4.088;2023-09-30T02:59:35;15.80;94.80
32217;DHT22;67098;51.140;4.088;2023-09-30T03:02:02;15.80;94.80
32217;DHT22;67098;51.140;4.088;2023-09-30T03:04:28;15.80;94.80
32217;DHT22;67098;51.140;4.088;2023-09-30T03:06:54;15.80;94.90
32217;DHT22;67098;51.140;4.088;2023-09-30T03:09:22;15.70;95.00
32217;DHT22;67098;51.140;4.088;2023-09-30T03:11:48;15.80;95.10
32217;DHT22;67098;51.140;4.088;2023-09-30T03:14:14;15.70;95.00
32217;DHT22;67098;51.140;4.088;2023-09-30T03:16:40;15.80;94.90
32217;DHT22;67098;51.140;4.088;2023-09-30T03:19:07;15.80;95.00
32217;DHT22;67098;51.140;4.088;2023-09-30T03:21:34;15.70;95.00
32217;DHT22;67098;51.140;4.088;2023-09-30T03:24:04;15.70;95.00
32217;DHT22;67098;51.140;4.088;2023-09-30T03:26:30;15.70;95.00
32217;DHT22;67098;51.140;4.088;2023-09-30T03:28:56;15.70;95.00
32217;DHT22;67098;51.140;4.088;2023-09-30T03:31:22;15.70;95.00
32217;DHT22;67098;51.140;4.088;2023-09-30T03:33:49;15.70;95.00
32217;DHT22;67098;51.140;4.088;2023-09-30T03:36:16;15.70;94.90
32217;DHT22;67098;51.140;4.088;2023-09-30T03:38:44;15.70;94.80
32217;DHT22;67098;51.140;4.088;2023-09-30T03:41:10;15.60;94.80
32217;DHT22;67098;51.140;4.088;2023-09-30T03:43:39;15.50;95.00
32217;DHT22;67098;51.140;4.088;2023-09-30T03:46:09;15.60;95.20
32217;DHT22;67098;51.140;4.088;2023-09-30T03:48:35;15.60;95.00
32217;DHT22;67098;51.140;4.088;2023-09-30T03:51:15;15.60;94.90
32217;DHT22;67098;51.140;4.088;2023-09-30T03:53:42;15.60;95.10
32217;DHT22;67098;51.140;4.088;2023-09-30T03:56:08;15.50;95.00
32217;DHT22;67098;51.140;4.088;2023-09-30T03:58:34;15.60;95.00
32217;DHT22;67098;51.140;4.088;2023-09-30T04:00:59;15.50;95.10
32217;DHT22;67098;51.140;4.088;2023-09-30T04:03:26;15.60;95.10
32217;DHT22;67098;51.140;4.088;2023-09-30T04:05:53;15.50;95.10
32217;DHT22;67098;51.140;4.088;2023-09-30T04:08:19;15.50;95.10
32217;DHT22;67098;51.140;4.088;2023-09-30T04:10:44;15.50;95.20
32217;DHT22;67098;51.140;4.088;2023-09-30T04:13:10;15.40;95.20
32217;DHT22;67098;51.140;4.088;2023-09-30T04:15:39;15.40;95.20
32217;DHT22;67098;51.140;4.088;2023-09-30T04:18:05;15.50;95.20
32217;DHT22;67098;51.140;4.088;2023-09-30T04:20:31;15.40;95.10
32217;DHT22;67098;51.140;4.088;2023-09-30T04:22:57;15.50;95.00
32217;DHT22;67098;51.140;4.088;2023-09-30T04:25:24;15.40;94.90
32217;DHT22;67098;51.140;4.088;2023-09-30T04:27:53;15.40;95.00
32217;DHT22;67098;51.140;4.088;2023-09-30T04:30:19;15.40;95.00
32217;DHT22;67098;51.140;4.088;2023-09-30T04:32:45;15.40;95.10
32217;DHT22;67098;51.140;4.088;2023-09-30T04:35:11;15.40;95.20
32217;DHT22;67098;51.140;4.088;2023-09-30T04:37:37;15.30;95.20
32217;DHT22;67098;51.140;4.088;2023-09-30T04:40:05;15.30;95.10
32217;DHT22;67098;51.140;4.088;2023-09-30T04:42:48;15.30;95.10
32217;DHT22;67098;51.140;4.088;2023-09-30T04:45:15;15.30;95.10
32217;DHT22;67098;51.140;4.088;2023-09-30T04:47:49;15.30;95.10
32217;DHT22;67098;51.140;4.088;2023-09-30T04:50:16;15.30;95.00
32217;DHT22;67098;51.140;4.088;2023-09-30T04:52:43;15.30;94.90
32217;DHT22;67098;51.140;4.088;2023-09-30T04:55:10;15.30;94.90
32217;DHT22;67098;51.140;4.088;2023-09-30T04:57:38;15.30;94.90
32217;DHT22;67098;51.140;4.088;2023-09-30T05:00:04;15.20;95.20
32217;DHT22;67098;51.140;4.088;2023-09-30T05:02:37;15.30;95.10
32217;DHT22;67098;51.140;4.088;2023-09-30T05:05:03;15.30;95.30
32217;DHT22;67098;51.140;4.088;2023-09-30T05:07:32;15.20;95.40
32217;DHT22;67098;51.140;4.088;2023-09-30T05:09:58;15.20;95.30
32217;DHT22;67098;51.140;4.088;2023-09-30T05:12:25;15.10;95.40
32217;DHT22;67098;51.140;4.088;2023-09-30T05:14:51;15.10;95.50
32217;DHT22;67098;51.140;4.088;2023-09-30T05:17:17;15.20;95.50
32217;DHT22;67098;51.140;4.088;2023-09-30T05:19:43;15.20;95.30
32217;DHT22;67098;51.140;4.088;2023-09-30T05:22:10;15.20;95.50
32217;DHT22;67098;51.140;4.088;2023-09-30T05:24:35;15.20;95.60
32217;DHT22;67098;51.140;4.088;2023-09-30T05:27:01;15.20;95.70
32217;DHT22;67098;51.140;4.088;2023-09-30T05:29:28;15.20;95.50
32217;DHT22;67098;51.140;4.088;2023-09-30T05:31:54;15.20;95.40
32217;DHT22;67098;51.140;4.088;2023-09-30T05:34:19;15.10;95.50
32217;DHT22;67098;51.140;4.088;2023-09-30T05:36:45;15.10;95.50
32217;DHT22;67098;51.140;4.088;2023-09-30T05:39:12;15.10;95.50
32217;DHT22;67098;51.140;4.088;2023-09-30T05:41:39;15.10;95.50
32217;DHT22;67098;51.140;4.088;2023-09-30T05:44:05;15.10;95.30
32217;DHT22;67098;51.140;4.088;2023-09-30T05:46:33;15.10;95.30
32217;DHT22;67098;51.140;4.088;2023-09-30T05:48:58;15.10;95.20
32217;DHT22;67098;51.140;4.088;2023-09-30T05:51:24;15.10;95.20
32217;DHT22;67098;51.140;4.088;2023-09-30T05:53:50;15.10;95.30
32217;DHT22;67098;51.140;4.088;2023-09-30T05:56:15;15.10;95.30
32217;DHT22;67098;51.140;4.088;2023-09-30T05:58:45;15.10;95.40
32217;DHT22;67098;51.140;4.088;2023-09-30T06:01:10;15.10;95.50
32217;DHT22;67098;51.140;4.088;2023-09-30T06:03:37;15.10;95.40
32217;DHT22;67098;51.140;4.088;2023-09-30T06:06:14;15.10;95.50
32217;DHT22;67098;51.140;4.088;2023-09-30T06:08:43;15.20;95.30
32217;DHT22;67098;51.140;4.088;2023-09-30T06:11:21;15.10;95.40
32217;DHT22;67098;51.140;4.088;2023-09-30T06:13:56;15.20;95.30
32217;DHT22;67098;51.140;4.088;2023-09-30T06:16:24;15.20;95.30
32217;DHT22;67098;51.140;4.088;2023-09-30T06:18:52;15.20;95.30
32217;DHT22;67098;51.140;4.088;2023-09-30T06:21:17;15.20;95.40
32217;DHT22;67098;51.140;4.088;2023-09-30T06:23:48;15.20;95.40
32217;DHT22;67098;51.140;4.088;2023-09-30T06:26:17;15.30;95.30
32217;DHT22;67098;51.140;4.088;2023-09-30T06:28:44;15.20;95.30
32217;DHT22;67098;51.140;4.088;2023-09-30T06:31:10;15.30;95.50
32217;DHT22;67098;51.140;4.088;2023-09-30T06:33:37;15.30;95.50
32217;DHT22;67098;51.140;4.088;2023-09-30T06:36:09;15.40;95.50
32217;DHT22;67098;51.140;4.088;2023-09-30T06:38:35;15.50;95.60
32217;DHT22;67098;51.140;4.088;2023-09-30T06:41:02;15.50;95.60
32217;DHT22;67098;51.140;4.088;2023-09-30T06:43:28;15.60;95.60
32217;DHT22;67098;51.140;4.088;2023-09-30T06:45:54;15.50;95.60
32217;DHT22;67098;51.140;4.088;2023-09-30T06:48:20;15.60;95.70
32217;DHT22;67098;51.140;4.088;2023-09-30T06:50:48;15.70;95.80
32217;DHT22;67098;51.140;4.088;2023-09-30T06:53:15;15.80;95.70
32217;DHT22;67098;51.140;4.088;2023-09-30T06:55:43;15.90;95.70
32217;DHT22;67098;51.140;4.088;2023-09-30T06:58:09;16.00;95.80
32217;DHT22;67098;51.140;4.088;2023-09-30T07:00:45;16.00;95.80
32217;DHT22;67098;51.140;4.088;2023-09-30T07:03:11;16.10;95.70
32217;DHT22;67098;51.140;4.088;2023-09-30T07:05:37;16.20;95.60
32217;DHT22;67098;51.140;4.088;2023-09-30T07:08:03;16.30;95.50
32217;DHT22;67098;51.140;4.088;2023-09-30T07:10:29;16.40;95.40
32217;DHT22;67098;51.140;4.088;2023-09-30T07:12:55;16.40;95.30
32217;DHT22;67098;51.140;4.088;2023-09-30T07:15:21;16.40;95.20
32217;DHT22;67098;51.140;4.088;2023-09-30T07:17:47;16.30;95.70
32217;DHT22;67098;51.140;4.088;2023-09-30T07:20:13;16.40;95.60
32217;DHT22;67098;51.140;4.088;2023-09-30T07:22:39;16.50;95.50
32217;DHT22;67098;51.140;4.088;2023-09-30T07:25:06;16.60;95.40
32217;DHT22;67098;51.140;4.088;2023-09-30T07:27:32;16.70;95.30
32217;DHT22;67098;51.140;4.088;2023-09-30T07:29:59;16.80;95.30
32217;DHT22;67098;51.140;4.088;2023-09-30T07:32:26;16.90;95.20
32217;DHT22;67098;51.140;4.088;2023-09-30T07:34:52;17.00;95.10
32217;DHT22;67098;51.140;4.088;2023-09-30T07:37:18;17.10;95.20
32217;DHT22;67098;51.140;4.088;2023-09-30T07:39:44;17.20;94.90
32217;DHT22;67098;51.140;4.088;2023-09-30T07:42:11;17.20;95.00
32217;DHT22;67098;51.140;4.088;2023-09-30T07:44:38;17.30;95.00
32217;DHT22;67098;51.140;4.088;2023-09-30T07:47:04;17.30;94.90
32217;DHT22;67098;51.140;4.088;2023-09-30T07:49:34;17.30;94.80
32217;DHT22;67098;51.140;4.088;2023-09-30T07:52:00;17.40;94.70
32217;DHT22;67098;51.140;4.088;2023-09-30T07:54:26;17.40;94.70
32217;DHT22;67098;51.140;4.088;2023-09-30T07:56:52;17.50;94.80
32217;DHT22;67098;51.140;4.088;2023-09-30T07:59:18;17.60;94.90
32217;DHT22;67098;51.140;4.088;2023-09-30T08:01:44;17.70;94.70
32217;DHT22;67098;51.140;4.088;2023-09-30T08:04:09;17.70;94.60
32217;DHT22;67098;51.140;4.088;2023-09-30T08:06:35;17.80;94.50
32217;DHT22;67098;51.140;4.088;2023-09-30T08:09:01;17.80;94.70
32217;DHT22;67098;51.140;4.088;2023-09-30T08:11:28;17.80;94.80
32217;DHT22;67098;51.140;4.088;2023-09-30T08:13:56;17.90;94.90
32217;DHT22;67098;51.140;4.088;2023-09-30T08:16:24;17.90;94.70
32217;DHT22;67098;51.140;4.088;2023-09-30T08:18:50;18.10;94.80
32217;DHT22;67098;51.140;4.088;2023-09-30T08:21:16;18.20;94.80
32217;DHT22;67098;51.140;4.088;2023-09-30T08:23:41;18.30;94.70
32217;DHT22;67098;51.140;4.088;2023-09-30T08:26:09;18.30;94.70
32217;DHT22;67098;51.140;4.088;2023-09-30T08:28:35;18.30;94.60
32217;DHT22;67098;51.140;4.088;2023-09-30T08:31:05;18.40;94.70
32217;DHT22;67098;51.140;4.088;2023-09-30T08:33:32;18.50;94.50
32217;DHT22;67098;51.140;4.088;2023-09-30T08:36:06;18.50;94.60
32217;DHT22;67098;51.140;4.088;2023-09-30T08:38:35;18.60;94.40
32217;DHT22;67098;51.140;4.088;2023-09-30T08:41:01;18.70;94.50
32217;DHT22;67098;51.140;4.088;2023-09-30T08:43:28;18.70;94.50
32217;DHT22;67098;51.140;4.088;2023-09-30T08:45:56;18.80;94.20
32217;DHT22;67098;51.140;4.088;2023-09-30T08:48:26;18.90;94.30
32217;DHT22;67098;51.140;4.088;2023-09-30T08:50:53;18.80;94.80
32217;DHT22;67098;51.140;4.088;2023-09-30T08:53:20;18.90;94.60
32217;DHT22;67098;51.140;4.088;2023-09-30T08:55:47;18.90;94.10
32217;DHT22;67098;51.140;4.088;2023-09-30T08:58:13;18.90;94.30
32217;DHT22;67098;51.140;4.088;2023-09-30T09:00:40;19.00;94.50
32217;DHT22;67098;51.140;4.088;2023-09-30T09:03:09;19.10;94.30
32217;DHT22;67098;51.140;4.088;2023-09-30T09:05:36;19.30;94.30
32217;DHT22;67098;51.140;4.088;2023-09-30T09:08:02;19.60;94.50
32217;DHT22;67098;51.140;4.088;2023-09-30T09:10:29;19.80;94.20
32217;DHT22;67098;51.140;4.088;2023-09-30T09:12:57;19.90;93.80
32217;DHT22;67098;51.140;4.088;2023-09-30T09:15:24;20.00;93.30
32217;DHT22;67098;51.140;4.088;2023-09-30T09:17:51;20.00;93.40
32217;DHT22;67098;51.140;4.088;2023-09-30T09:20:20;19.90;93.50
32217;DHT22;67098;51.140;4.088;2023-09-30T09:22:49;19.90;93.50
32217;DHT22;67098;51.140;4.088;2023-09-30T09:25:23;20.00;94.00
32217;DHT22;67098;51.140;4.088;2023-09-30T09:27:53;20.10;93.50
32217;DHT22;67098;51.140;4.088;2023-09-30T09:30:26;20.20;93.30
32217;DHT22;67098;51.140;4.088;2023-09-30T09:32:54;20.30;93.10
32217;DHT22;67098;51.140;4.088;2023-09-30T09:35:21;20.40;92.90
32217;DHT22;67098;51.140;4.088;2023-09-30T09:38:06;20.50;93.00
32217;DHT22;67098;51.140;4.088;2023-09-30T09:43:00;20.80;92.70
32217;DHT22;67098;51.140;4.088;2023-09-30T09:45:28;21.10;92.70
32217;DHT22;67098;51.140;4.088;2023-09-30T09:47:57;21.40;92.00
32217;DHT22;67098;51.140;4.088;2023-09-30T09:50:23;21.70;91.60
32217;DHT22;67098;51.140;4.088;2023-09-30T09:52:54;21.90;91.00
32217;DHT22;67098;51.140;4.088;2023-09-30T09:55:24;22.10;90.80
32217;DHT22;67098;51.140;4.088;2023-09-30T09:57:50;22.30;90.50
32217;DHT22;67098;51.140;4.088;2023-09-30T10:00:18;22.60;90.30
32217;DHT22;67098;51.140;4.088;2023-09-30T10:02:45;22.60;89.40
32217;DHT22;67098;51.140;4.088;2023-09-30T10:05:12;22.70;89.90
32217;DHT22;67098;51.140;4.088;2023-09-30T10:08:05;22.80;89.00
32217;DHT22;67098;51.140;4.088;2023-09-30T10:10:36;23.00;88.60
32217;DHT22;67098;51.140;4.088;2023-09-30T10:13:05;23.30;87.80
32217;DHT22;67098;51.140;4.088;2023-09-30T10:15:37;23.70;87.20
32217;DHT22;67098;51.140;4.088;2023-09-30T10:18:09;24.00;86.60
32217;DHT22;67098;51.140;4.088;2023-09-30T10:20:39;24.40;85.80
32217;DHT22;67098;51.140;4.088;2023-09-30T10:26:12;24.90;82.60
32217;DHT22;67098;51.140;4.088;2023-09-30T10:28:47;25.30;82.10
32217;DHT22;67098;51.140;4.088;2023-09-30T10:31:17;25.70;82.50
32217;DHT22;67098;51.140;4.088;2023-09-30T10:36:40;26.10;79.00
32217;DHT22;67098;51.140;4.088;2023-09-30T10:39:14;26.40;80.00
32217;DHT22;67098;51.140;4.088;2023-09-30T10:47:34;27.10;76.00
32217;DHT22;67098;51.140;4.088;2023-09-30T10:49:49;27.30;75.50
32217;DHT22;67098;51.140;4.088;2023-09-30T10:52:22;27.50;74.40
32217;DHT22;67098;51.140;4.088;2023-09-30T10:54:51;27.60;74.40
32217;DHT22;67098;51.140;4.088;2023-09-30T10:57:27;27.70;73.60
32217;DHT22;67098;51.140;4.088;2023-09-30T11:00:09;27.90;72.00
32217;DHT22;67098;51.140;4.088;2023-09-30T11:02:51;27.80;70.90
32217;DHT22;67098;51.140;4.088;2023-09-30T11:05:20;28.00;71.00
32217;DHT22;67098;51.140;4.088;2023-09-30T11:07:49;28.10;70.40
32217;DHT22;67098;51.140;4.088;2023-09-30T11:10:19;27.90;70.70
32217;DHT22;67098;51.140;4.088;2023-09-30T11:12:57;27.70;71.00
32217;DHT22;67098;51.140;4.088;2023-09-30T11:15:24;27.90;70.70
32217;DHT22;67098;51.140;4.088;2023-09-30T11:17:52;28.00;70.10
32217;DHT22;67098;51.140;4.088;2023-09-30T11:20:18;28.20;69.20
32217;DHT22;67098;51.140;4.088;2023-09-30T11:22:45;28.50;67.80
32217;DHT22;67098;51.140;4.088;2023-09-30T11:28:25;29.00;65.50
32217;DHT22;67098;51.140;4.088;2023-09-30T11:30:59;29.10;64.50
32217;DHT22;67098;51.140;4.088;2023-09-30T11:33:25;29.40;63.90
32217;DHT22;67098;51.140;4.088;2023-09-30T11:38:34;30.10;63.50
32217;DHT22;67098;51.140;4.088;2023-09-30T11:41:05;30.30;63.50
32217;DHT22;67098;51.140;4.088;2023-09-30T11:43:34;30.50;62.80
32217;DHT22;67098;51.140;4.088;2023-09-30T11:46:08;30.50;61.00
32217;DHT22;67098;51.140;4.088;2023-09-30T11:48:38;30.80;61.00
32217;DHT22;67098;51.140;4.088;2023-09-30T11:51:05;31.10;60.50
32217;DHT22;67098;51.140;4.088;2023-09-30T11:53:32;30.90;60.10
32217;DHT22;67098;51.140;4.088;2023-09-30T11:56:01;30.30;60.00
32217;DHT22;67098;51.140;4.088;2023-09-30T11:58:30;30.10;60.40
32217;DHT22;67098;51.140;4.088;2023-09-30T12:01:00;30.20;58.40
32217;DHT22;67098;51.140;4.088;2023-09-30T12:03:26;30.30;59.20
32217;DHT22;67098;51.140;4.088;2023-09-30T12:05:53;30.50;58.90
32217;DHT22;67098;51.140;4.088;2023-09-30T12:08:24;30.80;59.70
32217;DHT22;67098;51.140;4.088;2023-09-30T12:10:50;30.90;58.50
32217;DHT22;67098;51.140;4.088;2023-09-30T12:13:16;30.90;58.40
32217;DHT22;67098;51.140;4.088;2023-09-30T12:15:42;30.80;58.40
32217;DHT22;67098;51.140;4.088;2023-09-30T12:18:09;30.90;58.90
32217;DHT22;67098;51.140;4.088;2023-09-30T12:20:36;30.90;58.30
32217;DHT22;67098;51.140;4.088;2023-09-30T12:23:02;31.10;57.70
32217;DHT22;67098;51.140;4.088;2023-09-30T12:25:33;31.40;58.20
32217;DHT22;67098;51.140;4.088;2023-09-30T12:27:59;31.60;57.30
32217;DHT22;67098;51.140;4.088;2023-09-30T12:30:26;31.40;57.20
32217;DHT22;67098;51.140;4.088;2023-09-30T12:32:52;31.10;56.60
32217;DHT22;67098;51.140;4.088;2023-09-30T12:35:20;30.80;56.70
32217;DHT22;67098;51.140;4.088;2023-09-30T12:37:46;30.40;56.40
32217;DHT22;67098;51.140;4.088;2023-09-30T12:40:13;30.20;56.80
32217;DHT22;67098;51.140;4.088;2023-09-30T12:42:47;30.20;57.10
32217;DHT22;67098;51.140;4.088;2023-09-30T12:45:16;30.50;56.70
32217;DHT22;67098;51.140;4.088;2023-09-30T12:47:47;30.60;56.70
32217;DHT22;67098;51.140;4.088;2023-09-30T12:50:13;30.30;56.40
32217;DHT22;67098;51.140;4.088;2023-09-30T12:52:39;29.90;56.90
32217;DHT22;67098;51.140;4.088;2023-09-30T12:55:06;30.20;57.60
32217;DHT22;67098;51.140;4.088;2023-09-30T12:57:42;30.00;57.40
32217;DHT22;67098;51.140;4.088;2023-09-30T13:00:08;29.90;58.20
32217;DHT22;67098;51.140;4.088;2023-09-30T13:02:35;29.70;58.30
32217;DHT22;67098;51.140;4.088;2023-09-30T13:05:01;29.40;57.70
32217;DHT22;67098;51.140;4.088;2023-09-30T13:07:27;29.40;57.90
32217;DHT22;67098;51.140;4.088;2023-09-30T13:09:53;29.90;58.30
32217;DHT22;67098;51.140;4.088;2023-09-30T13:12:19;30.50;57.40
32217;DHT22;67098;51.140;4.088;2023-09-30T13:14:45;30.90;56.70
32217;DHT22;67098;51.140;4.088;2023-09-30T13:17:13;31.30;55.60
32217;DHT22;67098;51.140;4.088;2023-09-30T13:19:40;31.20;55.30
32217;DHT22;67098;51.140;4.088;2023-09-30T13:22:07;30.90;55.60
32217;DHT22;67098;51.140;4.088;2023-09-30T13:24:33;30.50;55.50
32217;DHT22;67098;51.140;4.088;2023-09-30T13:27:03;30.20;55.80
32217;DHT22;67098;51.140;4.088;2023-09-30T13:29:29;29.80;56.10
32217;DHT22;67098;51.140;4.088;2023-09-30T13:31:55;29.70;56.60
32217;DHT22;67098;51.140;4.088;2023-09-30T13:34:21;29.70;58.10
32217;DHT22;67098;51.140;4.088;2023-09-30T13:36:47;29.70;57.70
32217;DHT22;67098;51.140;4.088;2023-09-30T13:39:13;29.50;57.30
32217;DHT22;67098;51.140;4.088;2023-09-30T13:41:39;29.00;55.80
32217;DHT22;67098;51.140;4.088;2023-09-30T13:44:43;28.70;57.10
32217;DHT22;67098;51.140;4.088;2023-09-30T13:47:28;28.80;57.50
32217;DHT22;67098;51.140;4.088;2023-09-30T13:49:56;29.10;58.30
32217;DHT22;67098;51.140;4.088;2023-09-30T13:52:22;29.40;58.10
32217;DHT22;67098;51.140;4.088;2023-09-30T13:54:48;29.60;57.20
32217;DHT22;67098;51.140;4.088;2023-09-30T13:57:14;29.70;57.00
32217;DHT22;67098;51.140;4.088;2023-09-30T13:59:41;29.80;56.90
32217;DHT22;67098;51.140;4.088;2023-09-30T14:02:08;30.00;56.30
32217;DHT22;67098;51.140;4.088;2023-09-30T14:04:33;30.40;56.00
32217;DHT22;67098;51.140;4.088;2023-09-30T14:07:02;30.50;55.30
32217;DHT22;67098;51.140;4.088;2023-09-30T14:09:29;30.30;55.90
32217;DHT22;67098;51.140;4.088;2023-09-30T14:11:55;30.20;56.00
32217;DHT22;67098;51.140;4.088;2023-09-30T14:14:24;30.40;56.30
32217;DHT22;67098;51.140;4.088;2023-09-30T14:16:56;30.70;55.90
32217;DHT22;67098;51.140;4.088;2023-09-30T14:19:22;30.90;55.30
32217;DHT22;67098;51.140;4.088;2023-09-30T14:21:49;31.00;54.40
32217;DHT22;67098;51.140;4.088;2023-09-30T14:24:15;31.00;53.80
32217;DHT22;67098;51.140;4.088;2023-09-30T14:26:41;31.20;54.70
32217;DHT22;67098;51.140;4.088;2023-09-30T14:29:06;31.20;53.60
32217;DHT22;67098;51.140;4.088;2023-09-30T14:31:33;31.30;53.60
32217;DHT22;67098;51.140;4.088;2023-09-30T14:33:58;31.30;54.20
32217;DHT22;67098;51.140;4.088;2023-09-30T14:36:24;31.20;54.40
32217;DHT22;67098;51.140;4.088;2023-09-30T14:38:50;31.00;54.70
32217;DHT22;67098;51.140;4.088;2023-09-30T14:41:16;30.60;54.90
32217;DHT22;67098;51.140;4.088;2023-09-30T14:43:43;30.10;56.00
32217;DHT22;67098;51.140;4.088;2023-09-30T14:46:09;29.60;56.20
32217;DHT22;67098;51.140;4.088;2023-09-30T14:48:35;29.30;57.20
32217;DHT22;67098;51.140;4.088;2023-09-30T14:51:10;28.90;57.40
32217;DHT22;67098;51.140;4.088;2023-09-30T14:53:47;28.70;58.00
32217;DHT22;67098;51.140;4.088;2023-09-30T14:56:17;28.50;58.40
32217;DHT22;67098;51.140;4.088;2023-09-30T14:58:43;28.60;59.10
32217;DHT22;67098;51.140;4.088;2023-09-30T15:01:09;28.70;58.60
32217;DHT22;67098;51.140;4.088;2023-09-30T15:03:35;28.80;58.40
32217;DHT22;67098;51.140;4.088;2023-09-30T15:06:03;28.70;58.00
32217;DHT22;67098;51.140;4.088;2023-09-30T15:08:33;28.80;58.40
32217;DHT22;67098;51.140;4.088;2023-09-30T15:10:59;28.80;58.00
32217;DHT22;67098;51.140;4.088;2023-09-30T15:13:25;28.60;58.10
32217;DHT22;67098;51.140;4.088;2023-09-30T15:15:51;28.50;58.30
32217;DHT22;67098;51.140;4.088;2023-09-30T15:18:18;28.30;58.80
32217;DHT22;67098;51.140;4.088;2023-09-30T15:20:44;28.20;57.80
32217;DHT22;67098;51.140;4.088;2023-09-30T15:23:10;28.10;58.00
32217;DHT22;67098;51.140;4.088;2023-09-30T15:25:45;28.00;58.20
32217;DHT22;67098;51.140;4.088;2023-09-30T15:28:12;27.90;58.00
32217;DHT22;67098;51.140;4.088;2023-09-30T15:30:39;27.90;58.10
32217;DHT22;67098;51.140;4.088;2023-09-30T15:33:05;27.80;58.20
32217;DHT22;67098;51.140;4.088;2023-09-30T15:35:31;27.80;58.40
32217;DHT22;67098;51.140;4.088;2023-09-30T15:37:57;27.70;58.90
32217;DHT22;67098;51.140;4.088;2023-09-30T15:43:03;27.60;59.60
32217;DHT22;67098;51.140;4.088;2023-09-30T15:45:28;27.50;59.70
32217;DHT22;67098;51.140;4.088;2023-09-30T15:47:54;27.30;59.70
32217;DHT22;67098;51.140;4.088;2023-09-30T15:50:21;27.20;60.70
32217;DHT22;67098;51.140;4.088;2023-09-30T15:52:47;27.00;60.90
32217;DHT22;67098;51.140;4.088;2023-09-30T15:55:13;26.80;61.10